createdAt,value
2018-03-18T00:00:22.649Z,-6.30
2018-03-18T00:02:51.675Z,-6.80
2018-03-18T00:05:19.931Z,-6.50
2018-03-18T00:07:48.969Z,-6.80
2018-03-18T00:10:17.228Z,-6.80
2018-03-18T00:12:46.247Z,-6.50
2018-03-18T00:15:14.520Z,-6.50
2018-03-18T00:17:44.290Z,-6.60
2018-03-18T00:20:12.553Z,-6.50
2018-03-18T00:22:40.806Z,-6.60
2018-03-18T00:25:09.092Z,-6.60
2018-03-18T00:27:37.352Z,-6.50
2018-03-18T00:30:05.614Z,-6.30
2018-03-18T00:32:33.875Z,-6.30
2018-03-18T00:35:02.919Z,-6.50
2018-03-18T00:37:31.184Z,-6.80
2018-03-18T00:39:59.450Z,-6.50
2018-03-18T00:42:27.707Z,-6.80
2018-03-18T00:44:55.963Z,-6.70
2018-03-18T00:47:24.222Z,-6.60
2018-03-18T00:49:53.255Z,-6.50
2018-03-18T00:52:21.515Z,-6.70
2018-03-18T00:54:50.555Z,-6.70
2018-03-18T00:57:18.884Z,-6.80
2018-03-18T00:59:47.835Z,-6.70
2018-03-18T01:02:16.112Z,-6.60
2018-03-18T01:04:45.142Z,-6.80
2018-03-18T01:07:13.399Z,-6.90
2018-03-18T01:09:41.686Z,-6.60
2018-03-18T01:12:10.702Z,-6.50
2018-03-18T01:14:39.744Z,-6.70
2018-03-18T01:17:08.002Z,-7.00
2018-03-18T01:19:36.267Z,-6.50
2018-03-18T01:22:05.291Z,-6.90
2018-03-18T01:24:34.343Z,-6.60
2018-03-18T01:27:02.608Z,-6.90
2018-03-18T01:29:30.888Z,-6.60
2018-03-18T01:31:59.147Z,-6.90
2018-03-18T01:34:27.413Z,-6.60
2018-03-18T01:36:55.680Z,-6.90
2018-03-18T01:39:24.711Z,-6.70
2018-03-18T01:41:52.967Z,-6.60
2018-03-18T01:44:21.241Z,-6.90
2018-03-18T01:46:49.500Z,-6.60
2018-03-18T01:49:18.530Z,-6.70
2018-03-18T01:51:46.782Z,-7.10
2018-03-18T01:54:15.051Z,-7.00
2018-03-18T01:56:43.306Z,-6.90
2018-03-18T01:59:11.571Z,-6.60
2018-03-18T02:01:39.831Z,-7.10
2018-03-18T02:04:08.110Z,-7.20
2018-03-18T02:06:36.374Z,-6.90
2018-03-18T02:09:04.672Z,-6.80
2018-03-18T02:11:32.932Z,-7.00
2018-03-18T02:14:01.967Z,-6.90
2018-03-18T02:16:30.215Z,-6.80
2018-03-18T02:18:58.485Z,-7.00
2018-03-18T02:21:27.513Z,-7.00
2018-03-18T02:23:55.787Z,-6.90
2018-03-18T02:26:24.806Z,-7.00
2018-03-18T02:28:53.843Z,-7.10
2018-03-18T02:31:22.095Z,-7.10
2018-03-18T02:33:50.373Z,-7.40
2018-03-18T02:36:19.428Z,-7.10
2018-03-18T02:38:47.683Z,-7.20
2018-03-18T02:41:15.961Z,-7.10
2018-03-18T02:43:44.970Z,-7.30
2018-03-18T02:46:13.248Z,-7.20
2018-03-18T02:48:42.269Z,-7.40
2018-03-18T02:51:10.526Z,-7.10
2018-03-18T02:53:38.788Z,-7.20
2018-03-18T02:56:07.061Z,-7.10
2018-03-18T02:58:35.309Z,-7.20
2018-03-18T03:01:04.343Z,-7.50
2018-03-18T03:03:32.599Z,-7.20
2018-03-18T03:06:01.633Z,-7.00
2018-03-18T03:08:29.905Z,-7.20
2018-03-18T03:10:58.870Z,-7.30
2018-03-18T03:13:27.136Z,-7.30
2018-03-18T03:15:55.398Z,-7.30
2018-03-18T03:18:23.663Z,-7.60
2018-03-18T03:20:52.704Z,-7.40
2018-03-18T03:23:20.959Z,-7.20
2018-03-18T03:25:49.995Z,-7.50
2018-03-18T03:28:18.257Z,-7.30
2018-03-18T03:30:47.289Z,-7.70
2018-03-18T03:33:15.544Z,-7.60
2018-03-18T03:35:44.570Z,-7.60
2018-03-18T03:38:12.843Z,-7.40
2018-03-18T03:40:41.875Z,-7.40
2018-03-18T03:43:10.126Z,-7.80
2018-03-18T03:45:39.164Z,-7.70
2018-03-18T03:48:07.427Z,-7.60
2018-03-18T03:50:36.454Z,-7.50
2018-03-18T03:53:04.728Z,-7.50
2018-03-18T03:55:33.755Z,-7.60
2018-03-18T03:58:02.020Z,-7.80
2018-03-18T04:00:31.059Z,-7.40
2018-03-18T04:02:59.316Z,-7.80
2018-03-18T04:05:28.358Z,-7.90
2018-03-18T04:07:56.619Z,-7.50
2018-03-18T04:10:24.899Z,-7.50
2018-03-18T04:12:53.915Z,-7.70
2018-03-18T04:15:22.183Z,-7.60
2018-03-18T04:17:51.209Z,-7.80
2018-03-18T04:20:19.482Z,-7.40
2018-03-18T04:22:48.503Z,-7.50
2018-03-18T04:25:16.771Z,-7.50
2018-03-18T04:27:45.791Z,-7.60
2018-03-18T04:30:14.051Z,-7.40
2018-03-18T04:32:42.313Z,-7.90
2018-03-18T04:35:10.574Z,-7.90
2018-03-18T04:37:38.843Z,-7.70
2018-03-18T04:40:07.111Z,-7.90
2018-03-18T04:42:36.134Z,-7.80
2018-03-18T04:45:05.172Z,-8.00
2018-03-18T04:47:33.433Z,-7.90
2018-03-18T04:50:01.702Z,-7.70
2018-03-18T04:52:30.732Z,-7.90
2018-03-18T04:54:59.003Z,-7.70
2018-03-18T04:57:27.267Z,-7.70
2018-03-18T04:59:55.543Z,-7.70
2018-03-18T05:02:23.798Z,-7.90
2018-03-18T05:04:52.064Z,-7.80
2018-03-18T05:07:20.324Z,-8.00
2018-03-18T05:09:48.592Z,-7.60
2018-03-18T05:12:16.847Z,-7.60
2018-03-18T05:14:45.120Z,-7.80
2018-03-18T05:17:13.374Z,-7.60
2018-03-18T05:19:41.633Z,-7.90
2018-03-18T05:22:09.917Z,-7.70
2018-03-18T05:24:38.176Z,-7.70
2018-03-18T05:27:06.449Z,-7.80
2018-03-18T05:29:35.458Z,-7.90
2018-03-18T05:32:03.730Z,-7.60
2018-03-18T05:34:32.747Z,-7.90
2018-03-18T05:37:01.779Z,-7.60
2018-03-18T05:39:30.039Z,-8.00
2018-03-18T05:41:59.075Z,-7.70
2018-03-18T05:44:27.330Z,-8.10
2018-03-18T05:46:56.434Z,-8.10
2018-03-18T05:49:25.492Z,-7.70
2018-03-18T05:51:53.731Z,-8.20
2018-03-18T05:54:21.996Z,-7.60
2018-03-18T05:56:50.268Z,-8.00
2018-03-18T05:59:19.303Z,-7.70
2018-03-18T06:01:47.567Z,-7.60
2018-03-18T06:04:15.818Z,-8.00
2018-03-18T06:06:44.086Z,-8.00
2018-03-18T06:09:13.107Z,-7.70
2018-03-18T06:11:41.375Z,-7.70
2018-03-18T06:14:10.397Z,-7.80
2018-03-18T06:16:38.663Z,-7.90
2018-03-18T06:19:07.688Z,-7.70
2018-03-18T06:21:35.955Z,-7.60
2018-03-18T06:24:04.990Z,-7.30
2018-03-18T06:26:33.256Z,-7.60
2018-03-18T06:29:02.279Z,-7.60
2018-03-18T06:31:30.632Z,-7.40
2018-03-18T06:33:58.834Z,-7.50
2018-03-18T06:36:27.910Z,-7.20
2018-03-18T06:38:56.123Z,-7.40
2018-03-18T06:41:24.405Z,-7.20
2018-03-18T06:43:52.664Z,-7.20
2018-03-18T06:46:20.932Z,-7.00
2018-03-18T06:48:49.187Z,-7.00
2018-03-18T06:51:18.224Z,-7.00
2018-03-18T06:53:46.478Z,-7.20
2018-03-18T06:56:15.510Z,-6.80
2018-03-18T06:58:43.762Z,-7.10
2018-03-18T07:01:12.027Z,-6.90
2018-03-18T07:03:40.299Z,-7.10
2018-03-18T07:06:08.555Z,-7.00
2018-03-18T07:08:36.821Z,-7.00
2018-03-18T07:11:05.846Z,-6.50
2018-03-18T07:13:34.104Z,-6.70
2018-03-18T07:16:02.367Z,-6.60
2018-03-18T07:18:30.628Z,-6.70
2018-03-18T07:20:58.892Z,-6.60
2018-03-18T07:23:27.918Z,-6.50
2018-03-18T07:25:56.187Z,-6.50
2018-03-18T07:28:25.211Z,-6.60
2018-03-18T07:30:53.468Z,-6.30
2018-03-18T07:33:21.723Z,-6.30
2018-03-18T07:35:49.982Z,-6.30
2018-03-18T07:38:18.256Z,-6.40
2018-03-18T07:40:46.520Z,-6.30
2018-03-18T07:43:15.538Z,-6.10
2018-03-18T07:45:44.581Z,-5.90
2018-03-18T07:48:12.832Z,-6.00
2018-03-18T07:50:41.864Z,-5.90
2018-03-18T07:53:10.120Z,-5.70
2018-03-18T07:55:39.154Z,-5.70
2018-03-18T07:58:07.415Z,-5.50
2018-03-18T08:00:36.450Z,-5.60
2018-03-18T08:03:05.475Z,-5.70
2018-03-18T08:05:33.722Z,-5.80
2018-03-18T08:08:02.774Z,-5.70
2018-03-18T08:10:31.018Z,-5.70
2018-03-18T08:12:59.291Z,-5.60
2018-03-18T08:15:27.548Z,-5.60
2018-03-18T08:17:55.820Z,-6.00
2018-03-18T08:20:24.075Z,-5.80
2018-03-18T08:22:52.344Z,-5.70
2018-03-18T08:25:21.362Z,-5.80
2018-03-18T08:27:50.386Z,-5.70
2018-03-18T08:30:18.663Z,-5.80
2018-03-18T08:32:46.923Z,-6.00
2018-03-18T08:35:15.790Z,-5.90
2018-03-18T08:37:44.049Z,-5.60
2018-03-18T08:40:12.304Z,-5.80
2018-03-18T08:42:40.576Z,-5.50
2018-03-18T08:45:08.835Z,-5.50
2018-03-18T08:47:37.100Z,-5.50
2018-03-18T08:50:05.351Z,-5.30
2018-03-18T08:52:33.623Z,-5.20
2018-03-18T08:55:01.870Z,-5.20
2018-03-18T08:57:30.159Z,-4.90
2018-03-18T08:59:58.410Z,-5.00
2018-03-18T09:02:26.675Z,-5.10
2018-03-18T09:04:54.937Z,-4.80
2018-03-18T09:07:23.203Z,-4.80
2018-03-18T09:09:51.471Z,-4.80
2018-03-18T09:12:20.510Z,-4.90
2018-03-18T09:14:48.764Z,-4.80
2018-03-18T09:17:17.798Z,-4.80
2018-03-18T09:19:46.052Z,-4.80
2018-03-18T09:22:14.306Z,-4.80
2018-03-18T09:24:42.567Z,-4.90
2018-03-18T09:27:10.829Z,-4.60
2018-03-18T09:29:39.851Z,-4.90
2018-03-18T09:32:08.124Z,-4.90
2018-03-18T09:34:37.146Z,-4.40
2018-03-18T09:37:05.403Z,-4.20
2018-03-18T09:39:34.422Z,-4.50
2018-03-18T09:42:03.456Z,-4.40
2018-03-18T09:44:31.706Z,-4.20
2018-03-18T09:47:00.742Z,-4.20
2018-03-18T09:49:28.999Z,-4.20
2018-03-18T09:51:57.264Z,-4.00
2018-03-18T09:54:25.515Z,-4.40
2018-03-18T09:56:53.782Z,-4.20
